sensor_id;sensor_type;location;lat;lon;timestamp;P1;durP1;ratioP1;P2;durP2;ratioP2
16922;SDS011;8578;50.938;13.556;2023-05-20T00:02:13;13.17;;;8.27;;
16922;SDS011;8578;50.938;13.556;2023-05-20T00:04:41;13.37;;;8.40;;
16922;SDS011;8578;50.938;13.556;2023-05-20T00:07:10;17.40;;;8.93;;
16922;SDS011;8578;50.938;13.556;2023-05-20T00:09:38;14.53;;;8.40;;
16922;SDS011;8578;50.938;13.556;2023-05-20T00:12:06;12.93;;;8.40;;
16922;SDS011;8578;50.938;13.556;2023-05-20T00:14:34;13.20;;;8.10;;
16922;SDS011;8578;50.938;13.556;2023-05-20T00:17:02;15.70;;;8.83;;
16922;SDS011;8578;50.938;13.556;2023-05-20T00:19:29;12.50;;;8.47;;
16922;SDS011;8578;50.938;13.556;2023-05-20T00:21:57;15.70;;;9.30;;
16922;SDS011;8578;50.938;13.556;2023-05-20T00:24:25;12.87;;;8.83;;
16922;SDS011;8578;50.938;13.556;2023-05-20T00:26:53;15.47;;;9.13;;
16922;SDS011;8578;50.938;13.556;2023-05-20T00:29:20;18.17;;;8.67;;
16922;SDS011;8578;50.938;13.556;2023-05-20T00:31:48;16.47;;;8.97;;
16922;SDS011;8578;50.938;13.556;2023-05-20T00:34:16;15.03;;;8.53;;
16922;SDS011;8578;50.938;13.556;2023-05-20T00:36:44;13.90;;;8.90;;
16922;SDS011;8578;50.938;13.556;2023-05-20T00:39:11;14.93;;;9.10;;
16922;SDS011;8578;50.938;13.556;2023-05-20T00:41:40;15.10;;;9.63;;
16922;SDS011;8578;50.938;13.556;2023-05-20T00:44:08;15.13;;;9.67;;
16922;SDS011;8578;50.938;13.556;2023-05-20T00:46:36;18.27;;;9.77;;
16922;SDS011;8578;50.938;13.556;2023-05-20T00:49:07;13.53;;;9.47;;
16922;SDS011;8578;50.938;13.556;2023-05-20T00:51:35;13.67;;;8.63;;
16922;SDS011;8578;50.938;13.556;2023-05-20T00:54:02;16.37;;;10.03;;
16922;SDS011;8578;50.938;13.556;2023-05-20T00:56:30;14.80;;;10.13;;
16922;SDS011;8578;50.938;13.556;2023-05-20T00:58:59;15.27;;;10.23;;
16922;SDS011;8578;50.938;13.556;2023-05-20T01:01:27;13.90;;;9.63;;
16922;SDS011;8578;50.938;13.556;2023-05-20T01:03:55;15.77;;;9.77;;
16922;SDS011;8578;50.938;13.556;2023-05-20T01:06:22;20.47;;;10.73;;
16922;SDS011;8578;50.938;13.556;2023-05-20T01:08:50;14.20;;;9.70;;
16922;SDS011;8578;50.938;13.556;2023-05-20T01:11:18;15.70;;;10.57;;
16922;SDS011;8578;50.938;13.556;2023-05-20T01:13:50;16.43;;;10.23;;
16922;SDS011;8578;50.938;13.556;2023-05-20T01:16:19;18.70;;;10.47;;
16922;SDS011;8578;50.938;13.556;2023-05-20T01:18:48;16.57;;;11.10;;
16922;SDS011;8578;50.938;13.556;2023-05-20T01:21:17;20.23;;;10.97;;
16922;SDS011;8578;50.938;13.556;2023-05-20T01:23:46;16.00;;;10.47;;
16922;SDS011;8578;50.938;13.556;2023-05-20T01:26:14;16.83;;;10.70;;
16922;SDS011;8578;50.938;13.556;2023-05-20T01:28:44;19.67;;;10.90;;
16922;SDS011;8578;50.938;13.556;2023-05-20T01:31:13;16.97;;;10.87;;
16922;SDS011;8578;50.938;13.556;2023-05-20T01:33:41;18.07;;;11.40;;
16922;SDS011;8578;50.938;13.556;2023-05-20T01:36:09;17.30;;;11.10;;
16922;SDS011;8578;50.938;13.556;2023-05-20T01:38:37;14.50;;;10.50;;
16922;SDS011;8578;50.938;13.556;2023-05-20T01:41:07;18.77;;;11.33;;
16922;SDS011;8578;50.938;13.556;2023-05-20T01:43:35;15.87;;;10.50;;
16922;SDS011;8578;50.938;13.556;2023-05-20T01:46:04;18.47;;;11.27;;
16922;SDS011;8578;50.938;13.556;2023-05-20T01:48:32;19.57;;;11.57;;
16922;SDS011;8578;50.938;13.556;2023-05-20T01:50:59;19.43;;;11.43;;
16922;SDS011;8578;50.938;13.556;2023-05-20T01:53:27;17.80;;;11.63;;
16922;SDS011;8578;50.938;13.556;2023-05-20T01:55:55;18.40;;;11.63;;
16922;SDS011;8578;50.938;13.556;2023-05-20T01:58:24;18.83;;;12.00;;
16922;SDS011;8578;50.938;13.556;2023-05-20T02:00:52;17.90;;;11.17;;
16922;SDS011;8578;50.938;13.556;2023-05-20T02:03:19;16.40;;;11.37;;
16922;SDS011;8578;50.938;13.556;2023-05-20T02:05:48;20.10;;;12.90;;
16922;SDS011;8578;50.938;13.556;2023-05-20T02:08:15;24.23;;;13.30;;
16922;SDS011;8578;50.938;13.556;2023-05-20T02:10:43;22.17;;;13.37;;
16922;SDS011;8578;50.938;13.556;2023-05-20T02:13:11;20.73;;;13.03;;
16922;SDS011;8578;50.938;13.556;2023-05-20T02:15:41;22.07;;;13.27;;
16922;SDS011;8578;50.938;13.556;2023-05-20T02:18:08;22.17;;;12.83;;
16922;SDS011;8578;50.938;13.556;2023-05-20T02:20:37;23.07;;;13.63;;
16922;SDS011;8578;50.938;13.556;2023-05-20T02:23:06;23.73;;;14.67;;
16922;SDS011;8578;50.938;13.556;2023-05-20T02:25:35;22.30;;;13.90;;
16922;SDS011;8578;50.938;13.556;2023-05-20T02:28:02;24.60;;;14.63;;
16922;SDS011;8578;50.938;13.556;2023-05-20T02:30:31;23.97;;;14.57;;
16922;SDS011;8578;50.938;13.556;2023-05-20T02:33:00;23.10;;;13.73;;
16922;SDS011;8578;50.938;13.556;2023-05-20T02:35:27;24.20;;;14.00;;
16922;SDS011;8578;50.938;13.556;2023-05-20T02:37:55;29.37;;;15.30;;
16922;SDS011;8578;50.938;13.556;2023-05-20T02:40:23;24.07;;;14.57;;
16922;SDS011;8578;50.938;13.556;2023-05-20T02:42:52;24.70;;;14.17;;
16922;SDS011;8578;50.938;13.556;2023-05-20T02:45:20;26.07;;;14.43;;
16922;SDS011;8578;50.938;13.556;2023-05-20T02:47:47;22.87;;;14.10;;
16922;SDS011;8578;50.938;13.556;2023-05-20T02:50:17;23.43;;;14.40;;
16922;SDS011;8578;50.938;13.556;2023-05-20T02:52:45;25.07;;;15.10;;
16922;SDS011;8578;50.938;13.556;2023-05-20T02:55:12;25.67;;;15.63;;
16922;SDS011;8578;50.938;13.556;2023-05-20T02:57:42;27.00;;;15.47;;
16922;SDS011;8578;50.938;13.556;2023-05-20T03:00:09;23.07;;;13.43;;
16922;SDS011;8578;50.938;13.556;2023-05-20T03:02:37;27.47;;;15.60;;
16922;SDS011;8578;50.938;13.556;2023-05-20T03:05:05;27.63;;;15.33;;
16922;SDS011;8578;50.938;13.556;2023-05-20T03:07:35;25.50;;;14.93;;
16922;SDS011;8578;50.938;13.556;2023-05-20T03:10:05;28.00;;;15.50;;
16922;SDS011;8578;50.938;13.556;2023-05-20T03:12:33;23.90;;;14.60;;
16922;SDS011;8578;50.938;13.556;2023-05-20T03:15:00;33.37;;;18.50;;
16922;SDS011;8578;50.938;13.556;2023-05-20T03:17:29;31.40;;;19.60;;
16922;SDS011;8578;50.938;13.556;2023-05-20T03:19:56;32.20;;;19.97;;
16922;SDS011;8578;50.938;13.556;2023-05-20T03:22:24;34.73;;;19.27;;
16922;SDS011;8578;50.938;13.556;2023-05-20T03:24:53;29.53;;;17.07;;
16922;SDS011;8578;50.938;13.556;2023-05-20T03:27:20;29.00;;;17.03;;
16922;SDS011;8578;50.938;13.556;2023-05-20T03:29:48;27.40;;;17.00;;
16922;SDS011;8578;50.938;13.556;2023-05-20T03:32:17;36.17;;;21.80;;
16922;SDS011;8578;50.938;13.556;2023-05-20T03:34:45;38.43;;;22.73;;
16922;SDS011;8578;50.938;13.556;2023-05-20T03:37:12;41.03;;;24.17;;
16922;SDS011;8578;50.938;13.556;2023-05-20T03:39:40;30.53;;;16.87;;
16922;SDS011;8578;50.938;13.556;2023-05-20T03:42:12;28.77;;;15.67;;
16922;SDS011;8578;50.938;13.556;2023-05-20T03:44:39;29.80;;;16.77;;
16922;SDS011;8578;50.938;13.556;2023-05-20T03:47:07;26.83;;;16.20;;
16922;SDS011;8578;50.938;13.556;2023-05-20T03:49:35;26.73;;;15.23;;
16922;SDS011;8578;50.938;13.556;2023-05-20T03:52:03;26.77;;;15.13;;
16922;SDS011;8578;50.938;13.556;2023-05-20T03:54:30;25.83;;;15.20;;
16922;SDS011;8578;50.938;13.556;2023-05-20T03:56:58;25.80;;;14.50;;
16922;SDS011;8578;50.938;13.556;2023-05-20T03:59:27;23.20;;;14.47;;
16922;SDS011;8578;50.938;13.556;2023-05-20T04:01:55;26.50;;;15.00;;
16922;SDS011;8578;50.938;13.556;2023-05-20T04:04:23;25.40;;;14.83;;
16922;SDS011;8578;50.938;13.556;2023-05-20T04:06:51;23.47;;;14.57;;
16922;SDS011;8578;50.938;13.556;2023-05-20T04:09:19;25.50;;;14.77;;
16922;SDS011;8578;50.938;13.556;2023-05-20T04:11:47;27.67;;;15.33;;
16922;SDS011;8578;50.938;13.556;2023-05-20T04:14:14;24.87;;;14.97;;
16922;SDS011;8578;50.938;13.556;2023-05-20T04:16:43;23.87;;;14.83;;
16922;SDS011;8578;50.938;13.556;2023-05-20T04:19:11;22.23;;;13.83;;
16922;SDS011;8578;50.938;13.556;2023-05-20T04:21:38;25.87;;;14.90;;
16922;SDS011;8578;50.938;13.556;2023-05-20T04:24:07;25.43;;;15.23;;
16922;SDS011;8578;50.938;13.556;2023-05-20T04:26:34;24.30;;;14.33;;
16922;SDS011;8578;50.938;13.556;2023-05-20T04:29:03;24.97;;;15.40;;
16922;SDS011;8578;50.938;13.556;2023-05-20T04:31:32;28.67;;;14.90;;
16922;SDS011;8578;50.938;13.556;2023-05-20T04:34:01;27.10;;;15.80;;
16922;SDS011;8578;50.938;13.556;2023-05-20T04:36:29;26.93;;;15.27;;
16922;SDS011;8578;50.938;13.556;2023-05-20T04:39:01;26.77;;;15.43;;
16922;SDS011;8578;50.938;13.556;2023-05-20T04:41:28;24.73;;;15.37;;
16922;SDS011;8578;50.938;13.556;2023-05-20T04:43:56;27.23;;;14.40;;
16922;SDS011;8578;50.938;13.556;2023-05-20T04:46:26;24.47;;;14.53;;
16922;SDS011;8578;50.938;13.556;2023-05-20T04:48:53;24.90;;;14.30;;
16922;SDS011;8578;50.938;13.556;2023-05-20T04:51:22;26.77;;;14.83;;
16922;SDS011;8578;50.938;13.556;2023-05-20T04:53:50;26.60;;;14.93;;
16922;SDS011;8578;50.938;13.556;2023-05-20T04:56:18;30.27;;;15.33;;
16922;SDS011;8578;50.938;13.556;2023-05-20T04:58:46;26.43;;;15.60;;
16922;SDS011;8578;50.938;13.556;2023-05-20T05:01:14;28.07;;;15.43;;
16922;SDS011;8578;50.938;13.556;2023-05-20T05:03:41;28.63;;;15.50;;
16922;SDS011;8578;50.938;13.556;2023-05-20T05:06:09;28.37;;;15.37;;
16922;SDS011;8578;50.938;13.556;2023-05-20T05:08:38;27.20;;;15.17;;
16922;SDS011;8578;50.938;13.556;2023-05-20T05:11:06;27.20;;;15.53;;
16922;SDS011;8578;50.938;13.556;2023-05-20T05:13:33;28.73;;;15.30;;
16922;SDS011;8578;50.938;13.556;2023-05-20T05:16:01;25.00;;;13.90;;
16922;SDS011;8578;50.938;13.556;2023-05-20T05:18:30;28.53;;;14.93;;
16922;SDS011;8578;50.938;13.556;2023-05-20T05:20:59;28.80;;;15.13;;
16922;SDS011;8578;50.938;13.556;2023-05-20T05:23:27;28.60;;;15.70;;
16922;SDS011;8578;50.938;13.556;2023-05-20T05:25:56;30.13;;;15.13;;
16922;SDS011;8578;50.938;13.556;2023-05-20T05:28:24;25.77;;;14.43;;
16922;SDS011;8578;50.938;13.556;2023-05-20T05:30:52;25.17;;;14.37;;
16922;SDS011;8578;50.938;13.556;2023-05-20T05:33:20;24.60;;;14.50;;
16922;SDS011;8578;50.938;13.556;2023-05-20T05:35:47;26.57;;;14.77;;
16922;SDS011;8578;50.938;13.556;2023-05-20T05:38:16;26.93;;;15.40;;
16922;SDS011;8578;50.938;13.556;2023-05-20T05:40:43;29.80;;;15.40;;
16922;SDS011;8578;50.938;13.556;2023-05-20T05:43:12;26.70;;;14.57;;
16922;SDS011;8578;50.938;13.556;2023-05-20T05:45:40;23.70;;;14.10;;
16922;SDS011;8578;50.938;13.556;2023-05-20T05:48:08;26.73;;;15.00;;
16922;SDS011;8578;50.938;13.556;2023-05-20T05:50:37;30.77;;;15.67;;
16922;SDS011;8578;50.938;13.556;2023-05-20T05:53:05;31.73;;;15.40;;
16922;SDS011;8578;50.938;13.556;2023-05-20T05:55:35;28.53;;;14.80;;
16922;SDS011;8578;50.938;13.556;2023-05-20T05:58:02;32.80;;;15.97;;
16922;SDS011;8578;50.938;13.556;2023-05-20T06:00:31;27.50;;;14.83;;
16922;SDS011;8578;50.938;13.556;2023-05-20T06:02:59;27.03;;;15.03;;
16922;SDS011;8578;50.938;13.556;2023-05-20T06:05:31;27.30;;;14.23;;
16922;SDS011;8578;50.938;13.556;2023-05-20T06:07:59;26.80;;;14.27;;
16922;SDS011;8578;50.938;13.556;2023-05-20T06:10:28;30.03;;;14.60;;
16922;SDS011;8578;50.938;13.556;2023-05-20T06:12:56;26.73;;;15.40;;
16922;SDS011;8578;50.938;13.556;2023-05-20T06:15:26;27.97;;;15.10;;
16922;SDS011;8578;50.938;13.556;2023-05-20T06:17:56;27.77;;;14.83;;
16922;SDS011;8578;50.938;13.556;2023-05-20T06:20:24;27.10;;;15.17;;
16922;SDS011;8578;50.938;13.556;2023-05-20T06:22:54;27.23;;;14.73;;
16922;SDS011;8578;50.938;13.556;2023-05-20T06:25:27;27.07;;;15.17;;
16922;SDS011;8578;50.938;13.556;2023-05-20T06:27:54;29.13;;;14.73;;
16922;SDS011;8578;50.938;13.556;2023-05-20T06:30:23;26.30;;;15.07;;
16922;SDS011;8578;50.938;13.556;2023-05-20T06:32:52;28.17;;;14.70;;
16922;SDS011;8578;50.938;13.556;2023-05-20T06:35:21;28.10;;;15.03;;
16922;SDS011;8578;50.938;13.556;2023-05-20T06:37:49;28.97;;;15.13;;
16922;SDS011;8578;50.938;13.556;2023-05-20T06:40:16;24.57;;;14.53;;
16922;SDS011;8578;50.938;13.556;2023-05-20T06:42:44;26.43;;;14.43;;
16922;SDS011;8578;50.938;13.556;2023-05-20T06:45:12;26.10;;;15.17;;
16922;SDS011;8578;50.938;13.556;2023-05-20T06:47:42;26.93;;;14.80;;
16922;SDS011;8578;50.938;13.556;2023-05-20T06:50:10;26.13;;;15.37;;
16922;SDS011;8578;50.938;13.556;2023-05-20T06:52:39;26.47;;;14.63;;
16922;SDS011;8578;50.938;13.556;2023-05-20T06:55:08;23.67;;;14.30;;
16922;SDS011;8578;50.938;13.556;2023-05-20T06:57:36;24.07;;;14.87;;
16922;SDS011;8578;50.938;13.556;2023-05-20T07:00:04;26.00;;;15.23;;
16922;SDS011;8578;50.938;13.556;2023-05-20T07:02:37;27.07;;;15.47;;
16922;SDS011;8578;50.938;13.556;2023-05-20T07:05:04;26.77;;;15.33;;
16922;SDS011;8578;50.938;13.556;2023-05-20T07:07:32;25.53;;;14.63;;
16922;SDS011;8578;50.938;13.556;2023-05-20T07:10:01;27.23;;;14.87;;
16922;SDS011;8578;50.938;13.556;2023-05-20T07:12:31;26.23;;;14.77;;
16922;SDS011;8578;50.938;13.556;2023-05-20T07:15:02;24.03;;;14.60;;
16922;SDS011;8578;50.938;13.556;2023-05-20T07:17:31;25.30;;;15.37;;
16922;SDS011;8578;50.938;13.556;2023-05-20T07:19:58;25.40;;;14.27;;
16922;SDS011;8578;50.938;13.556;2023-05-20T07:22:28;23.03;;;14.13;;
16922;SDS011;8578;50.938;13.556;2023-05-20T07:25:09;26.87;;;15.70;;
16922;SDS011;8578;50.938;13.556;2023-05-20T07:27:37;24.20;;;15.10;;
16922;SDS011;8578;50.938;13.556;2023-05-20T07:30:05;24.67;;;15.00;;
16922;SDS011;8578;50.938;13.556;2023-05-20T07:32:38;24.37;;;14.33;;
16922;SDS011;8578;50.938;13.556;2023-05-20T07:35:07;26.40;;;15.37;;
16922;SDS011;8578;50.938;13.556;2023-05-20T07:37:35;23.03;;;14.67;;
16922;SDS011;8578;50.938;13.556;2023-05-20T07:40:05;25.53;;;15.97;;
16922;SDS011;8578;50.938;13.556;2023-05-20T07:42:36;26.10;;;14.10;;
16922;SDS011;8578;50.938;13.556;2023-05-20T07:45:03;22.70;;;14.50;;
16922;SDS011;8578;50.938;13.556;2023-05-20T07:47:31;26.17;;;14.90;;
16922;SDS011;8578;50.938;13.556;2023-05-20T07:50:00;24.63;;;13.93;;
16922;SDS011;8578;50.938;13.556;2023-05-20T07:52:31;24.77;;;13.97;;
16922;SDS011;8578;50.938;13.556;2023-05-20T07:55:19;24.90;;;14.73;;
16922;SDS011;8578;50.938;13.556;2023-05-20T07:57:49;25.33;;;15.30;;
16922;SDS011;8578;50.938;13.556;2023-05-20T08:00:17;25.77;;;15.10;;
16922;SDS011;8578;50.938;13.556;2023-05-20T08:02:45;23.53;;;14.73;;
16922;SDS011;8578;50.938;13.556;2023-05-20T08:05:19;23.03;;;14.20;;
16922;SDS011;8578;50.938;13.556;2023-05-20T08:07:48;22.57;;;14.50;;
16922;SDS011;8578;50.938;13.556;2023-05-20T08:10:17;21.97;;;13.13;;
16922;SDS011;8578;50.938;13.556;2023-05-20T08:12:45;20.50;;;13.60;;
16922;SDS011;8578;50.938;13.556;2023-05-20T08:15:14;22.73;;;13.17;;
16922;SDS011;8578;50.938;13.556;2023-05-20T08:17:42;26.93;;;14.20;;
16922;SDS011;8578;50.938;13.556;2023-05-20T08:20:11;18.93;;;13.30;;
16922;SDS011;8578;50.938;13.556;2023-05-20T08:22:39;22.87;;;13.73;;
16922;SDS011;8578;50.938;13.556;2023-05-20T08:25:07;24.07;;;14.10;;
16922;SDS011;8578;50.938;13.556;2023-05-20T08:27:35;20.00;;;13.70;;
16922;SDS011;8578;50.938;13.556;2023-05-20T08:30:05;20.37;;;13.80;;
16922;SDS011;8578;50.938;13.556;2023-05-20T08:32:36;20.57;;;14.07;;
16922;SDS011;8578;50.938;13.556;2023-05-20T08:35:04;22.47;;;14.23;;
16922;SDS011;8578;50.938;13.556;2023-05-20T08:37:32;22.67;;;14.93;;
16922;SDS011;8578;50.938;13.556;2023-05-20T08:39:59;22.87;;;14.23;;
16922;SDS011;8578;50.938;13.556;2023-05-20T08:42:27;25.50;;;14.07;;
16922;SDS011;8578;50.938;13.556;2023-05-20T08:44:55;21.60;;;14.23;;
16922;SDS011;8578;50.938;13.556;2023-05-20T08:47:25;22.37;;;13.93;;
16922;SDS011;8578;50.938;13.556;2023-05-20T08:49:54;18.03;;;11.90;;
16922;SDS011;8578;50.938;13.556;2023-05-20T08:52:22;23.37;;;14.00;;
16922;SDS011;8578;50.938;13.556;2023-05-20T08:54:50;24.87;;;13.17;;
16922;SDS011;8578;50.938;13.556;2023-05-20T08:57:18;21.70;;;14.27;;
16922;SDS011;8578;50.938;13.556;2023-05-20T08:59:47;21.37;;;13.93;;
16922;SDS011;8578;50.938;13.556;2023-05-20T09:02:14;24.40;;;15.27;;
16922;SDS011;8578;50.938;13.556;2023-05-20T09:04:42;22.50;;;14.30;;
16922;SDS011;8578;50.938;13.556;2023-05-20T09:07:11;25.77;;;15.70;;
16922;SDS011;8578;50.938;13.556;2023-05-20T09:09:39;24.77;;;14.90;;
16922;SDS011;8578;50.938;13.556;2023-05-20T09:12:07;21.67;;;13.87;;
16922;SDS011;8578;50.938;13.556;2023-05-20T09:14:34;23.80;;;14.70;;
16922;SDS011;8578;50.938;13.556;2023-05-20T09:17:04;23.17;;;14.27;;
16922;SDS011;8578;50.938;13.556;2023-05-20T09:19:35;22.13;;;13.93;;
16922;SDS011;8578;50.938;13.556;2023-05-20T09:22:03;20.27;;;13.10;;
16922;SDS011;8578;50.938;13.556;2023-05-20T09:24:33;28.73;;;14.67;;
16922;SDS011;8578;50.938;13.556;2023-05-20T09:27:00;21.63;;;14.67;;
16922;SDS011;8578;50.938;13.556;2023-05-20T09:29:28;23.33;;;14.00;;
16922;SDS011;8578;50.938;13.556;2023-05-20T09:32:00;19.93;;;13.83;;
16922;SDS011;8578;50.938;13.556;2023-05-20T09:34:28;20.70;;;13.53;;
16922;SDS011;8578;50.938;13.556;2023-05-20T09:36:55;18.90;;;13.50;;
16922;SDS011;8578;50.938;13.556;2023-05-20T09:39:27;19.00;;;12.30;;
16922;SDS011;8578;50.938;13.556;2023-05-20T09:42:00;19.83;;;12.67;;
16922;SDS011;8578;50.938;13.556;2023-05-20T09:44:29;23.33;;;13.33;;
16922;SDS011;8578;50.938;13.556;2023-05-20T09:46:57;21.70;;;13.73;;
16922;SDS011;8578;50.938;13.556;2023-05-20T09:49:26;22.70;;;12.00;;
16922;SDS011;8578;50.938;13.556;2023-05-20T09:51:55;20.10;;;14.00;;
16922;SDS011;8578;50.938;13.556;2023-05-20T09:54:23;19.60;;;13.47;;
16922;SDS011;8578;50.938;13.556;2023-05-20T09:56:51;19.03;;;12.80;;
16922;SDS011;8578;50.938;13.556;2023-05-20T09:59:21;17.77;;;12.53;;
16922;SDS011;8578;50.938;13.556;2023-05-20T10:01:50;21.40;;;13.60;;
16922;SDS011;8578;50.938;13.556;2023-05-20T10:04:18;21.57;;;13.37;;
16922;SDS011;8578;50.938;13.556;2023-05-20T10:06:56;19.67;;;13.57;;
16922;SDS011;8578;50.938;13.556;2023-05-20T10:09:31;22.90;;;14.20;;
16922;SDS011;8578;50.938;13.556;2023-05-20T10:12:04;17.80;;;12.37;;
16922;SDS011;8578;50.938;13.556;2023-05-20T10:14:42;18.47;;;12.60;;
16922;SDS011;8578;50.938;13.556;2023-05-20T10:17:13;17.07;;;12.17;;
16922;SDS011;8578;50.938;13.556;2023-05-20T10:19:43;16.07;;;11.53;;
16922;SDS011;8578;50.938;13.556;2023-05-20T10:22:11;15.87;;;11.03;;
16922;SDS011;8578;50.938;13.556;2023-05-20T10:24:40;17.33;;;11.60;;
16922;SDS011;8578;50.938;13.556;2023-05-20T10:27:08;17.37;;;11.10;;
16922;SDS011;8578;50.938;13.556;2023-05-20T10:29:43;19.13;;;12.57;;
16922;SDS011;8578;50.938;13.556;2023-05-20T10:32:23;17.57;;;12.33;;
16922;SDS011;8578;50.938;13.556;2023-05-20T10:34:50;16.40;;;11.87;;
16922;SDS011;8578;50.938;13.556;2023-05-20T10:37:25;17.43;;;11.93;;
16922;SDS011;8578;50.938;13.556;2023-05-20T10:40:01;17.27;;;11.60;;
16922;SDS011;8578;50.938;13.556;2023-05-20T10:42:29;18.03;;;11.53;;
16922;SDS011;8578;50.938;13.556;2023-05-20T10:44:58;17.27;;;12.00;;
16922;SDS011;8578;50.938;13.556;2023-05-20T10:47:26;17.53;;;11.63;;
16922;SDS011;8578;50.938;13.556;2023-05-20T10:49:53;17.53;;;12.27;;
16922;SDS011;8578;50.938;13.556;2023-05-20T10:52:21;18.30;;;11.90;;
16922;SDS011;8578;50.938;13.556;2023-05-20T10:54:55;18.13;;;11.73;;
16922;SDS011;8578;50.938;13.556;2023-05-20T10:57:24;20.43;;;12.27;;
16922;SDS011;8578;50.938;13.556;2023-05-20T10:59:52;18.90;;;11.57;;
16922;SDS011;8578;50.938;13.556;2023-05-20T11:02:22;20.63;;;11.50;;
16922;SDS011;8578;50.938;13.556;2023-05-20T11:04:52;16.27;;;11.20;;
16922;SDS011;8578;50.938;13.556;2023-05-20T11:07:23;16.57;;;11.57;;
16922;SDS011;8578;50.938;13.556;2023-05-20T11:09:51;16.67;;;12.10;;
16922;SDS011;8578;50.938;13.556;2023-05-20T11:12:20;19.10;;;12.20;;
16922;SDS011;8578;50.938;13.556;2023-05-20T11:14:48;16.23;;;11.90;;
16922;SDS011;8578;50.938;13.556;2023-05-20T11:17:15;16.40;;;11.97;;
16922;SDS011;8578;50.938;13.556;2023-05-20T11:19:45;16.30;;;11.53;;
16922;SDS011;8578;50.938;13.556;2023-05-20T11:22:13;15.40;;;11.53;;
16922;SDS011;8578;50.938;13.556;2023-05-20T11:24:41;20.40;;;11.63;;
16922;SDS011;8578;50.938;13.556;2023-05-20T11:27:08;18.00;;;12.57;;
16922;SDS011;8578;50.938;13.556;2023-05-20T11:29:36;17.87;;;11.57;;
16922;SDS011;8578;50.938;13.556;2023-05-20T11:32:04;19.67;;;11.70;;
16922;SDS011;8578;50.938;13.556;2023-05-20T11:34:34;18.60;;;12.30;;
16922;SDS011;8578;50.938;13.556;2023-05-20T11:37:05;20.50;;;11.50;;
16922;SDS011;8578;50.938;13.556;2023-05-20T11:39:33;17.63;;;11.80;;
16922;SDS011;8578;50.938;13.556;2023-05-20T11:42:00;16.00;;;11.47;;
16922;SDS011;8578;50.938;13.556;2023-05-20T11:44:29;17.43;;;11.90;;
16922;SDS011;8578;50.938;13.556;2023-05-20T11:46:58;15.37;;;10.57;;
16922;SDS011;8578;50.938;13.556;2023-05-20T11:49:26;19.77;;;12.47;;
16922;SDS011;8578;50.938;13.556;2023-05-20T11:51:53;15.83;;;11.67;;
16922;SDS011;8578;50.938;13.556;2023-05-20T11:54:24;16.33;;;11.00;;
16922;SDS011;8578;50.938;13.556;2023-05-20T11:56:52;15.23;;;9.87;;
16922;SDS011;8578;50.938;13.556;2023-05-20T11:59:20;17.13;;;11.43;;
16922;SDS011;8578;50.938;13.556;2023-05-20T12:01:49;15.87;;;10.93;;
16922;SDS011;8578;50.938;13.556;2023-05-20T12:04:17;15.73;;;11.07;;
16922;SDS011;8578;50.938;13.556;2023-05-20T12:06:45;15.40;;;10.80;;
16922;SDS011;8578;50.938;13.556;2023-05-20T12:09:12;16.67;;;11.23;;
16922;SDS011;8578;50.938;13.556;2023-05-20T12:11:41;15.57;;;10.77;;
16922;SDS011;8578;50.938;13.556;2023-05-20T12:14:10;16.67;;;11.33;;
16922;SDS011;8578;50.938;13.556;2023-05-20T12:16:37;16.60;;;11.53;;
16922;SDS011;8578;50.938;13.556;2023-05-20T12:19:05;19.27;;;11.23;;
16922;SDS011;8578;50.938;13.556;2023-05-20T12:21:34;18.70;;;11.80;;
16922;SDS011;8578;50.938;13.556;2023-05-20T12:24:01;15.10;;;10.87;;
16922;SDS011;8578;50.938;13.556;2023-05-20T12:26:31;17.33;;;10.67;;
16922;SDS011;8578;50.938;13.556;2023-05-20T12:29:02;18.10;;;10.73;;
16922;SDS011;8578;50.938;13.556;2023-05-20T12:31:29;16.23;;;10.70;;
16922;SDS011;8578;50.938;13.556;2023-05-20T12:34:00;17.23;;;10.63;;
16922;SDS011;8578;50.938;13.556;2023-05-20T12:36:28;14.70;;;10.87;;
16922;SDS011;8578;50.938;13.556;2023-05-20T12:38:56;15.30;;;10.73;;
16922;SDS011;8578;50.938;13.556;2023-05-20T12:41:24;12.10;;;9.77;;
16922;SDS011;8578;50.938;13.556;2023-05-20T12:43:52;16.63;;;10.80;;
16922;SDS011;8578;50.938;13.556;2023-05-20T12:46:21;13.90;;;10.37;;
16922;SDS011;8578;50.938;13.556;2023-05-20T12:48:48;12.90;;;9.53;;
16922;SDS011;8578;50.938;13.556;2023-05-20T12:51:16;14.20;;;10.13;;
16922;SDS011;8578;50.938;13.556;2023-05-20T12:53:45;16.20;;;11.20;;
16922;SDS011;8578;50.938;13.556;2023-05-20T12:56:12;17.37;;;10.43;;
16922;SDS011;8578;50.938;13.556;2023-05-20T12:58:40;15.93;;;10.17;;
16922;SDS011;8578;50.938;13.556;2023-05-20T13:01:07;14.90;;;10.30;;
16922;SDS011;8578;50.938;13.556;2023-05-20T13:03:36;13.90;;;9.90;;
16922;SDS011;8578;50.938;13.556;2023-05-20T13:06:04;13.43;;;9.73;;
16922;SDS011;8578;50.938;13.556;2023-05-20T13:08:32;13.33;;;10.20;;
16922;SDS011;8578;50.938;13.556;2023-05-20T13:10:59;14.23;;;10.37;;
16922;SDS011;8578;50.938;13.556;2023-05-20T13:13:27;15.07;;;9.80;;
16922;SDS011;8578;50.938;13.556;2023-05-20T13:15:54;15.43;;;9.53;;
16922;SDS011;8578;50.938;13.556;2023-05-20T13:18:22;17.30;;;9.57;;
16922;SDS011;8578;50.938;13.556;2023-05-20T13:20:51;14.10;;;9.57;;
16922;SDS011;8578;50.938;13.556;2023-05-20T13:23:18;13.97;;;10.07;;
16922;SDS011;8578;50.938;13.556;2023-05-20T13:25:46;17.83;;;10.17;;
16922;SDS011;8578;50.938;13.556;2023-05-20T13:28:13;13.37;;;9.67;;
16922;SDS011;8578;50.938;13.556;2023-05-20T13:30:44;15.07;;;9.63;;
16922;SDS011;8578;50.938;13.556;2023-05-20T13:33:11;17.10;;;9.87;;
16922;SDS011;8578;50.938;13.556;2023-05-20T13:35:39;14.70;;;9.90;;
16922;SDS011;8578;50.938;13.556;2023-05-20T13:38:08;13.00;;;9.47;;
16922;SDS011;8578;50.938;13.556;2023-05-20T13:40:35;12.83;;;10.20;;
16922;SDS011;8578;50.938;13.556;2023-05-20T13:43:03;13.27;;;9.83;;
16922;SDS011;8578;50.938;13.556;2023-05-20T13:45:30;15.60;;;10.40;;
16922;SDS011;8578;50.938;13.556;2023-05-20T13:47:58;14.83;;;10.03;;
16922;SDS011;8578;50.938;13.556;2023-05-20T13:50:26;20.60;;;9.93;;
16922;SDS011;8578;50.938;13.556;2023-05-20T13:52:54;15.40;;;10.00;;
16922;SDS011;8578;50.938;13.556;2023-05-20T13:55:23;14.50;;;9.63;;
16922;SDS011;8578;50.938;13.556;2023-05-20T13:57:51;14.33;;;9.73;;
16922;SDS011;8578;50.938;13.556;2023-05-20T14:00:19;11.60;;;8.90;;
16922;SDS011;8578;50.938;13.556;2023-05-20T14:02:47;14.83;;;10.10;;
16922;SDS011;8578;50.938;13.556;2023-05-20T14:05:15;11.30;;;9.53;;
16922;SDS011;8578;50.938;13.556;2023-05-20T14:07:44;12.27;;;9.60;;
16922;SDS011;8578;50.938;13.556;2023-05-20T14:10:11;14.23;;;9.57;;
16922;SDS011;8578;50.938;13.556;2023-05-20T14:12:40;13.13;;;10.40;;
16922;SDS011;8578;50.938;13.556;2023-05-20T14:15:13;11.73;;;9.20;;
16922;SDS011;8578;50.938;13.556;2023-05-20T14:17:40;15.57;;;10.43;;
16922;SDS011;8578;50.938;13.556;2023-05-20T14:20:08;14.40;;;8.93;;
16922;SDS011;8578;50.938;13.556;2023-05-20T14:22:36;12.50;;;9.73;;
16922;SDS011;8578;50.938;13.556;2023-05-20T14:25:05;11.23;;;8.57;;
16922;SDS011;8578;50.938;13.556;2023-05-20T14:27:33;13.03;;;9.30;;
16922;SDS011;8578;50.938;13.556;2023-05-20T14:30:02;12.20;;;8.73;;
16922;SDS011;8578;50.938;13.556;2023-05-20T14:32:29;12.60;;;9.50;;